EST,Max TemperatureF,Mean TemperatureF,Min TemperatureF,Max Dew PointF,MeanDew PointF,Min DewpointF,Max Humidity, Mean Humidity, Min Humidity, Max Sea Level PressureIn, Mean Sea Level PressureIn, Min Sea Level PressureIn, Max VisibilityMiles, Mean VisibilityMiles, Min VisibilityMiles, Max Wind SpeedMPH, Mean Wind SpeedMPH, Max Gust SpeedMPH,PrecipitationIn, CloudCover, Events, WindDirDegrees
2012-11-1,45,42,39,36,33,28,86,70,58,29.72,29.64,29.57,,,,16,13,26,0.02,,,301
2012-11-2,39,38,37,34,30,27,86,72,62,30.04,29.89,29.73,,,,15,13,26,0.04,,,318
2012-11-3,39,38,36,33,31,26,89,75,65,30.20,30.15,30.05,,,,13,9,28,0.08,,,333
2012-11-4,39,38,37,34,30,27,86,74,65,30.20,30.18,30.17,,,,14,6,21,0.03,,,339
2012-11-5,37,36,35,29,25,21,73,63,55,30.24,30.21,30.18,,,,14,5,16,0.00,,,359
2012-11-6,39,36,33,28,25,22,75,64,53,30.18,30.10,30.05,,,,13,3,,0.00,,,169
2012-11-7,41,39,37,33,30,26,77,68,60,30.17,30.11,30.06,,,,17,13,,0.00,,,91
2012-11-8,45,40,35,34,31,28,82,69,60,30.21,30.16,30.11,,,,9,3,,0.00,,,342
2012-11-9,46,42,37,40,36,30,89,79,73,30.17,30.14,30.12,,,,8,4,,0.00,,,230
2012-11-10,51,48,44,45,43,40,90,85,77,30.18,30.10,29.97,,,,18,9,26,0.01,,,133
2012-11-11,64,58,52,48,44,36,77,56,41,30.04,29.97,29.88,,,,14,7,26,0.00,,,173
2012-11-12,60,46,33,51,35,22,93,69,42,30.19,29.94,29.83,,,,15,9,25,0.33,,,235
2012-11-13,37,32,28,21,20,17,72,59,50,30.55,30.41,30.21,,,,10,8,24,0.01,,,257
2012-11-14,37,32,27,26,21,18,73,64,50,30.61,30.55,30.46,,,,6,4,,0.00,,,226
2012-11-15,43,36,28,29,27,23,89,74,58,30.47,30.40,30.35,,,,6,2,,0.00,,,223
2012-11-16,46,39,30,39,33,27,93,82,73,30.52,30.45,30.36,,,,7,4,,0.00,,,285
2012-11-17,46,37,28,39,33,27,96,83,66,30.61,30.57,30.52,,,,6,2,,0.00,,,184
2012-11-18,45,40,36,40,37,33,96,89,82,30.56,30.51,30.45,,,,12,4,,0.00,,,155
2012-11-19,48,42,36,40,36,33,97,80,63,30.43,30.32,30.17,,,,6,3,,0.00,,,165
2012-11-20,46,41,36,42,38,32,97,84,65,30.17,30.14,30.10,,,,5,1,,0.00,,,173
2012-11-21,55,44,32,41,37,30,96,79,57,30.22,30.17,30.09,,,,7,3,,0.00,,,232
2012-11-22,63,54,44,45,41,36,86,67,37,30.08,29.93,29.70,,,,13,7,24,0.02,,,204
2012-11-23,55,44,33,46,30,21,77,65,55,29.87,29.69,29.55,,,,24,12,37,0.00,,,256
2012-11-24,34,32,30,21,19,16,64,59,54,30.05,30.00,29.88,,,,20,14,32,0.00,,,297
2012-11-25,34,30,27,26,24,19,89,76,61,29.98,29.87,29.79,,,,12,6,22,0.07,,,247
2012-11-26,34,32,30,25,20,18,82,63,56,30.28,30.14,29.94,,,,12,7,20,0.02,,,277
2012-11-27,33,27,21,20,18,16,82,64,54,30.34,30.28,30.19,,,,10,5,17,0.00,,,244
2012-11-28,37,32,26,25,21,18,78,65,48,30.27,30.21,30.14,,,,13,8,25,0.00,,,255
2012-11-29,43,35,27,33,28,19,83,73,62,30.27,30.22,30.17,,,,20,8,21,0.00,,,247
2012-11-30,36,35,34,31,29,26,85,81,73,30.35,30.30,30.27,,,,22,18,,0.00,,,94